createdAt,value
2018-04-17T00:00:50.907Z,13.77
2018-04-17T00:03:18.479Z,14.93
2018-04-17T00:05:46.226Z,15.57
2018-04-17T00:08:15.679Z,16.00
2018-04-17T00:10:43.963Z,14.60
2018-04-17T00:13:14.511Z,16.57
2018-04-17T00:15:42.062Z,16.10
2018-04-17T00:18:09.848Z,18.63
2018-04-17T00:20:37.373Z,17.03
2018-04-17T00:23:05.167Z,16.10
2018-04-17T00:25:32.687Z,15.90
2018-04-17T00:28:00.230Z,16.70
2018-04-17T00:30:28.041Z,16.00
2018-04-17T00:32:55.905Z,15.73
2018-04-17T00:35:23.422Z,16.30
2018-04-17T00:37:50.984Z,17.20
2018-04-17T00:40:18.514Z,16.93
2018-04-17T00:42:46.063Z,16.43
2018-04-17T00:45:13.611Z,17.70
2018-04-17T00:47:41.144Z,18.00
2018-04-17T00:50:08.662Z,17.70
2018-04-17T00:52:36.206Z,16.53
2018-04-17T00:55:04.492Z,15.93
2018-04-17T00:57:32.048Z,17.07
2018-04-17T00:59:59.568Z,17.53
2018-04-17T01:02:27.089Z,17.07
2018-04-17T01:04:54.623Z,17.50
2018-04-17T01:07:22.168Z,15.80
2018-04-17T01:09:49.730Z,17.97
2018-04-17T01:12:17.255Z,17.80
2018-04-17T01:14:44.823Z,17.63
2018-04-17T01:17:12.347Z,16.67
2018-04-17T01:19:39.887Z,18.23
2018-04-17T01:22:07.662Z,16.87
2018-04-17T01:24:35.227Z,18.50
2018-04-17T01:27:02.775Z,19.33
2018-04-17T01:29:30.642Z,18.00
2018-04-17T01:31:58.177Z,18.83
2018-04-17T01:34:25.737Z,18.17
2018-04-17T01:36:53.259Z,18.10
2018-04-17T01:39:21.572Z,19.07
2018-04-17T01:41:49.116Z,18.23
2018-04-17T01:44:16.631Z,19.07
2018-04-17T01:46:44.930Z,17.73
2018-04-17T01:49:12.508Z,16.60
2018-04-17T01:51:40.056Z,19.20
2018-04-17T01:54:07.581Z,18.37
2018-04-17T01:56:35.890Z,17.33
2018-04-17T01:59:03.408Z,17.80
2018-04-17T02:01:31.718Z,18.60
2018-04-17T02:03:59.235Z,18.43
2018-04-17T02:06:26.772Z,17.90
2018-04-17T02:08:54.312Z,18.60
2018-04-17T02:11:21.859Z,19.07
2018-04-17T02:13:49.647Z,17.40
2018-04-17T02:16:17.187Z,18.13
2018-04-17T02:18:45.471Z,17.97
2018-04-17T02:21:13.025Z,19.30
2018-04-17T02:23:40.545Z,18.57
2018-04-17T02:26:08.064Z,18.70
2018-04-17T02:28:35.620Z,18.90
2018-04-17T02:31:03.152Z,19.20
2018-04-17T02:33:30.696Z,17.77
2018-04-17T02:35:58.211Z,18.97
2018-04-17T02:38:26.551Z,19.90
2018-04-17T02:40:54.072Z,18.73
2018-04-17T02:43:21.640Z,20.23
2018-04-17T02:45:49.174Z,20.77
2018-04-17T02:48:16.710Z,19.73
2018-04-17T02:50:45.001Z,18.23
2018-04-17T02:53:12.567Z,18.17
2018-04-17T02:55:40.083Z,18.27
2018-04-17T02:58:08.393Z,19.17
2018-04-17T03:00:35.920Z,17.67
2018-04-17T03:03:03.726Z,17.00
2018-04-17T03:05:31.258Z,18.80
2018-04-17T03:07:58.805Z,18.90
2018-04-17T03:10:26.313Z,17.87
2018-04-17T03:12:53.865Z,17.43
2018-04-17T03:15:21.392Z,18.87
2018-04-17T03:17:48.984Z,18.03
2018-04-17T03:20:16.519Z,20.40
2018-04-17T03:22:44.034Z,18.00
2018-04-17T03:25:12.347Z,19.27
2018-04-17T03:27:39.868Z,18.87
2018-04-17T03:30:08.176Z,18.27
2018-04-17T03:32:35.708Z,19.00
2018-04-17T03:35:03.253Z,18.63
2018-04-17T03:40:05.567Z,16.60
2018-04-17T03:42:33.084Z,16.90
2018-04-17T03:45:01.393Z,16.13
2018-04-17T03:47:28.907Z,16.77
2018-04-17T03:49:56.461Z,16.80
2018-04-17T03:52:24.756Z,17.33
2018-04-17T03:54:53.102Z,17.03
2018-04-17T03:57:20.620Z,17.03
2018-04-17T03:59:48.163Z,17.37
2018-04-17T04:02:15.690Z,18.77
2018-04-17T04:04:43.991Z,18.40
2018-04-17T04:07:11.540Z,18.30
2018-04-17T04:09:39.101Z,16.70
2018-04-17T04:12:06.624Z,18.10
2018-04-17T04:14:34.936Z,17.77
2018-04-17T04:17:14.595Z,18.60
2018-04-17T04:19:53.965Z,18.70
2018-04-17T04:22:33.396Z,17.60
2018-04-17T04:25:20.496Z,18.50
2018-04-17T04:27:48.021Z,17.93
2018-04-17T04:30:16.431Z,17.87
2018-04-17T04:32:44.007Z,19.20
2018-04-17T04:35:11.526Z,18.80
2018-04-17T04:37:39.088Z,19.20
2018-04-17T04:40:06.618Z,18.40
2018-04-17T04:42:34.168Z,18.17
2018-04-17T04:45:01.688Z,19.60
2018-04-17T04:47:29.230Z,19.30
2018-04-17T04:49:56.751Z,18.77
2018-04-17T04:52:24.343Z,18.47
2018-04-17T04:54:51.868Z,17.73
2018-04-17T04:57:19.740Z,17.23
2018-04-17T04:59:47.260Z,18.77
2018-04-17T05:02:14.800Z,18.70
2018-04-17T05:04:43.083Z,18.53
2018-04-17T05:07:11.405Z,18.80
2018-04-17T05:09:39.164Z,16.77
2018-04-17T05:12:06.704Z,18.30
2018-04-17T05:14:34.219Z,18.50
2018-04-17T05:17:02.539Z,20.53
2018-04-17T05:19:30.055Z,18.50
2018-04-17T05:21:58.340Z,19.10
2018-04-17T05:24:26.652Z,19.57
2018-04-17T05:26:54.301Z,18.90
2018-04-17T05:29:21.844Z,17.90
2018-04-17T05:31:49.379Z,17.63
2018-04-17T05:34:17.721Z,18.40
2018-04-17T05:36:45.567Z,19.67
2018-04-17T05:39:13.116Z,18.53
2018-04-17T05:41:40.636Z,20.70
2018-04-17T05:44:08.200Z,19.37
2018-04-17T05:46:35.714Z,19.50
2018-04-17T05:49:04.043Z,19.37
2018-04-17T05:51:31.568Z,19.40
2018-04-17T05:53:59.872Z,18.60
2018-04-17T05:56:27.417Z,18.00
2018-04-17T05:58:54.989Z,18.80
2018-04-17T06:01:22.812Z,19.93
2018-04-17T06:03:50.312Z,18.30
2018-04-17T06:06:17.854Z,18.50
2018-04-17T06:08:45.370Z,19.30
2018-04-17T06:11:12.937Z,17.50
2018-04-17T06:13:41.483Z,17.53
2018-04-17T06:16:09.124Z,17.90
2018-04-17T06:18:36.681Z,18.00
2018-04-17T06:21:04.223Z,17.67
2018-04-17T06:23:31.744Z,18.30
2018-04-17T06:25:59.345Z,17.50
2018-04-17T06:28:27.591Z,16.40
2018-04-17T06:30:55.920Z,15.43
2018-04-17T06:33:23.440Z,15.17
2018-04-17T06:35:51.231Z,15.50
2018-04-17T06:38:18.780Z,14.77
2018-04-17T06:40:46.310Z,15.33
2018-04-17T06:43:13.856Z,15.30
2018-04-17T06:45:42.490Z,14.30
2018-04-17T06:48:10.036Z,15.30
2018-04-17T06:50:37.553Z,16.93
2018-04-17T06:53:05.090Z,15.77
2018-04-17T06:55:33.384Z,15.50
2018-04-17T06:58:00.963Z,14.57
2018-04-17T07:00:28.470Z,13.73
2018-04-17T07:02:56.032Z,14.43
2018-04-17T07:05:24.316Z,15.10
2018-04-17T07:07:52.644Z,15.60
2018-04-17T07:10:20.503Z,13.60
2018-04-17T07:12:48.053Z,15.03
2018-04-17T07:15:15.576Z,14.90
2018-04-17T07:17:43.925Z,13.83
2018-04-17T07:20:11.472Z,15.10
2018-04-17T07:22:39.029Z,15.20
2018-04-17T07:25:06.869Z,15.47
2018-04-17T07:27:34.412Z,15.77
2018-04-17T07:30:01.960Z,15.80
2018-04-17T07:32:29.475Z,16.23
2018-04-17T07:34:57.028Z,16.00
2018-04-17T07:37:24.548Z,16.10
2018-04-17T07:39:52.108Z,15.90
2018-04-17T07:42:19.867Z,14.90
2018-04-17T07:44:47.415Z,16.60
2018-04-17T07:47:30.887Z,16.93
2018-04-17T07:49:58.427Z,16.70
2018-04-17T07:52:25.964Z,15.93
2018-04-17T07:54:53.507Z,17.40
2018-04-17T07:57:21.028Z,16.00
2018-04-17T07:59:49.346Z,16.80
2018-04-17T08:02:16.883Z,16.40
2018-04-17T08:04:44.461Z,17.10
2018-04-17T08:07:11.970Z,16.67
2018-04-17T08:09:40.291Z,16.77
2018-04-17T08:12:07.819Z,15.93
2018-04-17T08:14:35.348Z,17.33
2018-04-17T08:17:02.900Z,16.87
2018-04-17T08:19:30.424Z,16.07
2018-04-17T08:21:57.983Z,17.13
2018-04-17T08:24:25.501Z,14.90
2018-04-17T08:26:53.046Z,16.83
2018-04-17T08:29:21.333Z,16.87
2018-04-17T08:31:49.128Z,17.80
2018-04-17T08:34:16.646Z,15.90
2018-04-17T08:36:44.215Z,15.67
2018-04-17T08:39:12.494Z,16.83
2018-04-17T08:41:40.039Z,17.60
2018-04-17T08:44:07.567Z,16.60
2018-04-17T08:46:35.875Z,15.10
2018-04-17T08:49:03.400Z,15.20
2018-04-17T08:51:31.735Z,15.43
2018-04-17T08:53:59.263Z,14.30
2018-04-17T08:56:26.788Z,16.10
2018-04-17T08:58:55.100Z,14.93
2018-04-17T09:01:22.632Z,15.20
2018-04-17T09:03:50.938Z,15.13
2018-04-17T09:06:18.455Z,15.90
2018-04-17T09:08:46.759Z,14.03
2018-04-17T09:11:14.324Z,15.40
2018-04-17T09:13:41.892Z,14.80
2018-04-17T09:16:09.410Z,14.70
2018-04-17T09:18:36.959Z,15.03
2018-04-17T09:21:05.248Z,15.80
2018-04-17T09:23:32.796Z,15.10
2018-04-17T09:26:01.080Z,14.30
2018-04-17T09:28:28.672Z,13.30
2018-04-17T09:30:56.188Z,14.27
2018-04-17T09:33:23.745Z,15.17
2018-04-17T09:35:51.283Z,14.30
2018-04-17T09:38:19.569Z,13.93
2018-04-17T09:40:47.115Z,13.53
2018-04-17T09:43:15.403Z,14.43
2018-04-17T09:45:42.947Z,13.07
2018-04-17T09:48:11.275Z,12.93
2018-04-17T09:50:38.890Z,12.60
2018-04-17T09:53:06.407Z,12.17
2018-04-17T09:55:33.963Z,12.83
2018-04-17T09:58:01.477Z,13.13
2018-04-17T10:00:29.042Z,13.40
2018-04-17T10:02:56.564Z,14.50
2018-04-17T10:05:24.866Z,13.57
2018-04-17T10:07:52.396Z,13.43
2018-04-17T10:10:20.755Z,12.97
2018-04-17T10:12:48.271Z,12.67
2018-04-17T10:15:15.831Z,11.63
2018-04-17T10:17:43.372Z,11.40
2018-04-17T10:20:10.929Z,11.30
2018-04-17T10:22:38.814Z,11.93
2018-04-17T10:25:06.360Z,11.40
2018-04-17T10:27:34.228Z,11.50
2018-04-17T10:30:01.773Z,12.23
2018-04-17T10:32:29.648Z,11.33
2018-04-17T10:34:57.169Z,11.70
2018-04-17T10:37:24.710Z,9.70
2018-04-17T10:39:52.996Z,9.43
2018-04-17T10:42:20.549Z,10.53
2018-04-17T10:44:48.840Z,10.37
2018-04-17T10:47:16.407Z,10.30
2018-04-17T10:49:43.921Z,9.20
2018-04-17T10:52:12.244Z,7.77
2018-04-17T10:54:39.758Z,9.40
2018-04-17T10:57:08.072Z,8.10
2018-04-17T10:59:35.596Z,7.60
2018-04-17T11:02:03.911Z,7.70
2018-04-17T11:04:31.447Z,7.70
2018-04-17T11:06:59.003Z,7.57
2018-04-17T11:09:26.543Z,8.10
2018-04-17T11:11:54.056Z,7.30
2018-04-17T11:14:21.602Z,6.97
2018-04-17T11:16:49.115Z,7.43
2018-04-17T11:19:16.648Z,6.03
2018-04-17T11:21:44.169Z,7.43
2018-04-17T11:24:11.700Z,7.40
2018-04-17T11:26:39.211Z,6.50
2018-04-17T11:29:06.787Z,6.23
2018-04-17T11:31:34.278Z,7.40
2018-04-17T11:34:01.828Z,6.60
2018-04-17T11:36:29.515Z,5.00
2018-04-17T11:38:57.055Z,4.80
2018-04-17T11:41:24.575Z,7.43
2018-04-17T11:43:52.876Z,5.60
2018-04-17T11:46:20.436Z,5.90
2018-04-17T11:48:47.979Z,6.13
2018-04-17T11:51:15.486Z,6.27
2018-04-17T11:53:43.584Z,6.57
2018-04-17T11:56:11.867Z,5.07
2018-04-17T11:58:39.447Z,5.30
2018-04-17T12:01:06.955Z,4.93
2018-04-17T12:03:34.473Z,5.00
2018-04-17T12:06:02.008Z,4.50
2018-04-17T12:08:29.524Z,4.80
2018-04-17T12:10:57.076Z,4.53
2018-04-17T12:13:24.640Z,4.47
2018-04-17T12:15:52.952Z,3.93
2018-04-17T12:18:20.478Z,3.57
2018-04-17T12:20:48.790Z,3.60
2018-04-17T12:23:16.307Z,3.40
2018-04-17T12:25:44.611Z,3.57
2018-04-17T12:28:12.121Z,3.07
2018-04-17T12:30:39.658Z,3.30
2018-04-17T12:33:07.211Z,3.23
2018-04-17T12:35:34.755Z,3.23
2018-04-17T12:38:02.516Z,3.00
2018-04-17T12:40:30.072Z,2.90
2018-04-17T12:42:57.575Z,2.87
2018-04-17T12:45:25.895Z,3.70
2018-04-17T12:47:53.398Z,3.63
2018-04-17T12:50:20.908Z,4.30
2018-04-17T12:52:48.435Z,3.73
2018-04-17T12:55:16.235Z,3.30
2018-04-17T12:57:43.764Z,3.17
2018-04-17T13:00:11.280Z,2.40
2018-04-17T13:02:39.602Z,3.13
2018-04-17T13:05:07.120Z,2.20
2018-04-17T13:07:35.432Z,2.60
2018-04-17T13:10:02.956Z,2.40
2018-04-17T13:12:31.255Z,2.63
2018-04-17T13:14:58.771Z,2.70
2018-04-17T13:17:26.312Z,2.53
2018-04-17T13:19:53.843Z,2.10
2018-04-17T13:22:21.367Z,2.37
2018-04-17T13:24:48.899Z,2.13
2018-04-17T13:27:16.439Z,2.80
2018-04-17T13:29:43.956Z,2.30
2018-04-17T13:32:11.475Z,2.20
2018-04-17T13:34:39.013Z,1.90
2018-04-17T13:37:06.528Z,2.50
2018-04-17T13:39:34.073Z,2.30
2018-04-17T13:42:01.863Z,2.80
2018-04-17T13:44:29.742Z,2.30
2018-04-17T13:46:57.302Z,2.03
2018-04-17T13:49:24.840Z,2.00
2018-04-17T13:51:52.361Z,2.20
2018-04-17T13:54:19.912Z,2.80
2018-04-17T13:56:47.427Z,2.10
2018-04-17T13:59:14.967Z,1.90
2018-04-17T14:01:42.485Z,1.90
2018-04-17T14:04:10.024Z,2.03
2018-04-17T14:06:38.299Z,1.90
2018-04-17T14:09:06.601Z,1.73
2018-04-17T14:11:34.403Z,2.00
2018-04-17T14:14:02.148Z,1.73
2018-04-17T14:16:29.708Z,1.97
2018-04-17T14:18:57.240Z,2.30
2018-04-17T14:21:24.789Z,1.50
2018-04-17T14:23:52.302Z,2.40
2018-04-17T14:26:19.835Z,2.27
2018-04-17T14:28:47.348Z,1.80
2018-04-17T14:31:15.651Z,1.53
2018-04-17T14:33:43.433Z,2.17
2018-04-17T14:36:10.994Z,2.20
2018-04-17T14:38:38.510Z,2.07
2018-04-17T14:41:06.042Z,2.27
2018-04-17T14:43:34.321Z,2.13
2018-04-17T14:46:02.633Z,2.30
2018-04-17T14:48:30.168Z,1.90
2018-04-17T14:50:57.723Z,2.17
2018-04-17T14:53:25.251Z,2.07
2018-04-17T14:55:52.796Z,2.33
2018-04-17T14:58:20.325Z,2.30
2018-04-17T15:00:47.868Z,2.80
2018-04-17T15:03:15.384Z,2.17
2018-04-17T15:05:43.683Z,2.50
2018-04-17T15:08:11.200Z,4.00
2018-04-17T15:10:39.029Z,2.77
2018-04-17T15:13:06.592Z,3.10
2018-04-17T15:15:34.111Z,2.83
2018-04-17T15:18:01.656Z,2.53
2018-04-17T15:20:29.934Z,2.57
2018-04-17T15:22:58.249Z,2.60
2018-04-17T15:25:25.768Z,2.30
2018-04-17T15:27:53.304Z,2.57
2018-04-17T15:30:21.579Z,2.83
2018-04-17T15:32:49.902Z,3.03
2018-04-17T15:35:17.415Z,3.40
2018-04-17T15:37:45.722Z,4.47
2018-04-17T15:40:13.245Z,3.00
2018-04-17T15:42:40.807Z,2.80
2018-04-17T15:45:09.088Z,2.87
2018-04-17T15:47:36.882Z,2.93
2018-04-17T15:50:04.476Z,2.30
2018-04-17T15:52:32.023Z,2.60
2018-04-17T15:54:59.542Z,2.60
2018-04-17T15:57:27.088Z,2.70
2018-04-17T15:59:54.614Z,2.63
2018-04-17T16:02:23.151Z,3.00
2018-04-17T16:04:50.796Z,2.10
2018-04-17T16:07:18.316Z,2.97
2018-04-17T16:09:46.626Z,3.07
2018-04-17T16:12:14.158Z,2.40
2018-04-17T16:14:41.693Z,2.30
2018-04-17T16:17:09.203Z,2.70
2018-04-17T16:19:36.739Z,2.30
2018-04-17T16:22:04.256Z,2.60
2018-04-17T16:24:31.808Z,2.73
2018-04-17T16:26:59.425Z,2.63
2018-04-17T16:29:26.959Z,2.60
2018-04-17T16:31:54.510Z,2.50
2018-04-17T16:34:22.320Z,2.27
2018-04-17T16:36:50.172Z,2.63
2018-04-17T16:39:17.703Z,1.93
2018-04-17T16:41:45.220Z,2.40
2018-04-17T16:44:12.760Z,2.37
2018-04-17T16:46:40.263Z,2.20
2018-04-17T16:49:08.060Z,2.27
2018-04-17T16:51:35.594Z,2.10
2018-04-17T16:54:03.102Z,2.10
2018-04-17T16:56:30.636Z,1.90
2018-04-17T16:58:58.160Z,2.07
2018-04-17T17:01:25.700Z,2.93
2018-04-17T17:03:53.979Z,2.67
2018-04-17T17:06:21.557Z,2.53
2018-04-17T17:08:49.103Z,2.23
2018-04-17T17:11:16.652Z,2.43
2018-04-17T17:13:44.175Z,2.40
2018-04-17T17:16:11.712Z,2.60
2018-04-17T17:18:39.236Z,2.77
2018-04-17T17:21:06.772Z,2.57
2018-04-17T17:23:35.046Z,3.43
2018-04-17T17:26:03.349Z,3.00
2018-04-17T17:28:31.146Z,2.93
2018-04-17T17:30:58.769Z,3.10
2018-04-17T17:33:26.307Z,2.70
2018-04-17T17:35:53.831Z,2.20
2018-04-17T17:38:21.656Z,2.30
2018-04-17T17:40:49.171Z,2.50
2018-04-17T17:43:16.735Z,2.63
2018-04-17T17:45:44.244Z,2.67
2018-04-17T17:48:11.775Z,2.57
2018-04-17T17:50:39.296Z,3.40
2018-04-17T17:53:07.661Z,2.73
2018-04-17T17:55:35.952Z,2.30
2018-04-17T17:58:03.503Z,2.53
2018-04-17T18:00:31.793Z,2.70
2018-04-17T18:02:59.467Z,3.30
2018-04-17T18:05:27.005Z,2.53
2018-04-17T18:07:54.591Z,4.10
2018-04-17T18:10:22.451Z,2.83
2018-04-17T18:12:49.967Z,3.40
2018-04-17T18:15:18.272Z,3.03
2018-04-17T18:17:45.797Z,3.63
2018-04-17T18:20:14.098Z,4.00
2018-04-17T18:22:41.672Z,3.57
2018-04-17T18:25:09.211Z,3.67
2018-04-17T18:27:36.732Z,3.40
2018-04-17T18:30:05.036Z,3.30
2018-04-17T18:32:32.546Z,3.20
2018-04-17T18:35:00.102Z,2.97
2018-04-17T18:37:27.628Z,2.83
2018-04-17T18:39:55.176Z,2.80
2018-04-17T18:42:22.700Z,3.13
2018-04-17T18:44:50.240Z,3.10
2018-04-17T18:47:18.060Z,2.90
2018-04-17T18:49:45.653Z,3.40
2018-04-17T18:52:13.389Z,3.17
2018-04-17T18:54:40.952Z,2.70
2018-04-17T18:57:08.796Z,3.00
2018-04-17T18:59:36.312Z,3.43
2018-04-17T19:02:04.620Z,3.27
2018-04-17T19:04:32.140Z,3.53
2018-04-17T19:07:00.463Z,3.97
2018-04-17T19:09:27.983Z,4.00
2018-04-17T19:11:55.521Z,3.47
2018-04-17T19:14:23.816Z,3.60
2018-04-17T19:16:51.374Z,3.53
2018-04-17T19:19:18.915Z,4.70
2018-04-17T19:21:47.219Z,3.90
2018-04-17T19:24:14.990Z,3.90
2018-04-17T19:26:42.532Z,3.80
2018-04-17T19:29:10.049Z,4.20
2018-04-17T19:31:38.367Z,5.57
2018-04-17T19:34:05.953Z,5.57
2018-04-17T19:36:33.465Z,5.20
2018-04-17T19:39:01.256Z,4.97
2018-04-17T19:41:28.759Z,4.70
2018-04-17T19:43:57.068Z,4.50
2018-04-17T19:46:24.594Z,5.00
2018-04-17T19:48:52.901Z,5.23
2018-04-17T19:51:20.420Z,5.77
2018-04-17T19:53:48.770Z,5.43
2018-04-17T19:56:16.291Z,5.70
2018-04-17T19:58:44.094Z,4.83
2018-04-17T20:01:12.625Z,5.93
2018-04-17T20:03:40.432Z,5.67
2018-04-17T20:06:07.946Z,5.60
2018-04-17T20:08:35.761Z,4.67
2018-04-17T20:11:03.303Z,6.27
2018-04-17T20:13:30.825Z,5.53
2018-04-17T20:15:58.368Z,5.60
2018-04-17T20:18:25.892Z,5.70
2018-04-17T20:20:53.455Z,5.27
2018-04-17T20:23:21.736Z,5.90
2018-04-17T20:25:50.053Z,6.90
2018-04-17T20:28:17.575Z,7.00
2018-04-17T20:30:45.132Z,7.27
2018-04-17T20:33:12.664Z,6.43
2018-04-17T20:35:40.990Z,5.30
2018-04-17T20:38:08.499Z,5.77
2018-04-17T20:40:36.043Z,4.50
2018-04-17T20:43:03.589Z,4.63
2018-04-17T20:45:31.136Z,5.03
2018-04-17T20:47:58.646Z,5.50
2018-04-17T20:50:26.950Z,5.53
2018-04-17T20:52:54.459Z,5.00
2018-04-17T20:55:22.763Z,5.87
2018-04-17T20:57:50.311Z,5.93
2018-04-17T21:00:17.869Z,5.87
2018-04-17T21:02:45.663Z,5.90
2018-04-17T21:05:13.172Z,4.97
2018-04-17T21:07:41.491Z,5.10
2018-04-17T21:10:09.028Z,5.87
2018-04-17T21:12:36.564Z,5.20
2018-04-17T21:15:04.092Z,5.67
2018-04-17T21:17:31.657Z,6.33
2018-04-17T21:19:59.167Z,5.80
2018-04-17T21:22:26.703Z,5.63
2018-04-17T21:24:54.223Z,5.57
2018-04-17T21:27:21.767Z,5.73
2018-04-17T21:29:50.079Z,6.03
2018-04-17T21:32:18.380Z,5.57
2018-04-17T21:34:46.157Z,5.80
2018-04-17T21:37:13.696Z,5.10
2018-04-17T21:39:41.219Z,5.30
2018-04-17T21:42:09.532Z,6.20
2018-04-17T21:44:37.048Z,5.87
2018-04-17T21:47:05.359Z,6.00
2018-04-17T21:49:33.136Z,5.87
2018-04-17T21:52:00.670Z,5.37
2018-04-17T21:54:28.184Z,5.70
2018-04-17T21:56:55.736Z,5.50
2018-04-17T21:59:23.565Z,5.37
2018-04-17T22:01:51.083Z,4.93
2018-04-17T22:04:19.384Z,5.90
2018-04-17T22:06:46.896Z,5.00
2018-04-17T22:09:15.207Z,5.27
2018-04-17T22:11:42.721Z,5.87
2018-04-17T22:14:10.328Z,5.67
2018-04-17T22:16:37.843Z,4.97
2018-04-17T22:19:06.143Z,5.50
2018-04-17T22:21:33.941Z,5.40
2018-04-17T22:24:01.479Z,5.40
2018-04-17T22:26:29.032Z,4.90
2018-04-17T22:28:56.568Z,6.13
2018-04-17T22:31:24.094Z,5.53
2018-04-17T22:33:51.607Z,5.80
2018-04-17T22:36:19.159Z,5.53
2018-04-17T22:38:46.676Z,5.60
2018-04-17T22:41:14.974Z,6.17
2018-04-17T22:43:42.759Z,6.40
2018-04-17T22:46:10.305Z,6.20
2018-04-17T22:48:37.817Z,5.10
2018-04-17T22:51:06.137Z,6.20
2018-04-17T22:53:33.744Z,5.60
2018-04-17T22:56:01.286Z,5.43
2018-04-17T22:58:28.910Z,5.40
2018-04-17T23:00:56.452Z,5.87
2018-04-17T23:03:23.959Z,6.20
2018-04-17T23:05:51.496Z,6.30
2018-04-17T23:08:19.035Z,6.67
2018-04-17T23:10:46.574Z,5.43
2018-04-17T23:13:14.202Z,5.10
2018-04-17T23:15:41.743Z,5.37
2018-04-17T23:18:09.255Z,5.03
2018-04-17T23:20:36.805Z,5.40
2018-04-17T23:23:04.314Z,6.70
2018-04-17T23:25:31.830Z,5.03
2018-04-17T23:27:59.393Z,5.37
2018-04-17T23:30:26.907Z,4.60
2018-04-17T23:32:55.203Z,4.53
2018-04-17T23:35:22.811Z,5.00
2018-04-17T23:37:50.347Z,6.00
2018-04-17T23:40:17.884Z,4.63
2018-04-17T23:42:45.420Z,4.87
2018-04-17T23:45:12.935Z,5.37
2018-04-17T23:47:40.515Z,5.13
2018-04-17T23:50:08.797Z,4.60
2018-04-17T23:52:37.119Z,5.80
2018-04-17T23:55:04.634Z,5.23
2018-04-17T23:57:32.931Z,5.30
